createdAt,value
2023-03-06T00:00:52.740Z,4.00
2023-03-06T00:03:20.522Z,3.98
2023-03-06T00:05:48.368Z,3.94
2023-03-06T00:08:16.216Z,4.02
2023-03-06T00:10:43.896Z,3.89
2023-03-06T00:13:13.981Z,3.91
2023-03-06T00:15:43.206Z,4.00
2023-03-06T00:18:10.854Z,4.08
2023-03-06T00:20:40.784Z,3.96
2023-03-06T00:23:08.488Z,4.08
2023-03-06T00:25:38.538Z,3.91
2023-03-06T00:28:06.567Z,4.05
2023-03-06T00:30:34.342Z,3.93
2023-03-06T00:33:03.431Z,4.04
2023-03-06T00:35:31.076Z,3.96
2023-03-06T00:37:59.796Z,4.09
2023-03-06T00:40:27.989Z,4.07
2023-03-06T00:42:55.656Z,4.08
2023-03-06T00:45:23.470Z,4.07
2023-03-06T00:47:51.256Z,4.10
2023-03-06T00:50:20.499Z,3.99
2023-03-06T00:52:48.254Z,4.09
2023-03-06T00:55:15.942Z,3.94
2023-03-06T00:57:43.590Z,3.89
2023-03-06T01:00:13.526Z,3.88
2023-03-06T01:02:41.569Z,3.87
2023-03-06T01:05:10.046Z,3.91
2023-03-06T01:07:39.111Z,3.92
2023-03-06T01:10:08.621Z,4.06
2023-03-06T01:12:36.451Z,4.00
2023-03-06T01:15:05.235Z,4.01
2023-03-06T01:17:32.957Z,3.97
2023-03-06T01:20:00.656Z,4.02
2023-03-06T01:22:28.301Z,4.10
2023-03-06T01:24:57.400Z,3.99
2023-03-06T01:27:25.025Z,4.06
2023-03-06T01:29:52.721Z,4.03
2023-03-06T01:32:21.499Z,3.90
2023-03-06T01:34:49.210Z,3.77
2023-03-06T01:37:16.927Z,3.70
2023-03-06T01:39:44.595Z,3.69
2023-03-06T01:42:13.709Z,3.63
2023-03-06T01:44:59.720Z,3.54
2023-03-06T01:47:27.434Z,3.52
2023-03-06T01:49:55.447Z,3.53
2023-03-06T01:52:25.482Z,3.45
2023-03-06T01:54:54.516Z,3.40
2023-03-06T01:57:24.927Z,3.39
2023-03-06T01:59:55.652Z,3.27
2023-03-06T02:02:23.522Z,3.22
2023-03-06T02:04:51.159Z,3.19
2023-03-06T02:07:20.570Z,3.21
2023-03-06T02:09:48.372Z,3.18
2023-03-06T02:12:19.120Z,3.15
2023-03-06T02:14:48.877Z,3.25
2023-03-06T02:17:18.775Z,3.18
2023-03-06T02:19:53.874Z,3.30
2023-03-06T02:22:22.259Z,3.25
2023-03-06T02:24:53.754Z,3.37
2023-03-06T02:27:24.136Z,3.36
2023-03-06T02:29:52.004Z,3.49
2023-03-06T02:32:19.734Z,3.40
2023-03-06T02:34:53.340Z,3.41
2023-03-06T02:37:22.441Z,3.39
2023-03-06T02:39:55.975Z,3.46
2023-03-06T02:42:28.832Z,3.37
2023-03-06T02:44:57.534Z,3.33
2023-03-06T02:47:25.534Z,3.28
2023-03-06T02:49:53.197Z,3.16
2023-03-06T02:52:20.936Z,3.15
2023-03-06T02:54:48.571Z,3.14
2023-03-06T02:57:16.236Z,3.15
2023-03-06T02:59:45.301Z,3.00
2023-03-06T03:02:13.075Z,3.05
2023-03-06T03:04:40.806Z,3.04
2023-03-06T03:07:09.030Z,3.03
2023-03-06T03:09:37.320Z,2.98
2023-03-06T03:12:06.394Z,2.92
2023-03-06T03:14:34.115Z,3.05
2023-03-06T03:17:03.462Z,3.00
2023-03-06T03:19:31.131Z,2.98
2023-03-06T03:21:58.756Z,2.99
2023-03-06T03:24:26.672Z,2.95
2023-03-06T03:26:54.393Z,2.91
2023-03-06T03:29:22.116Z,2.84
2023-03-06T03:31:49.954Z,2.88
2023-03-06T03:34:19.873Z,2.85
2023-03-06T03:36:47.954Z,2.89
2023-03-06T03:39:15.686Z,2.86
2023-03-06T03:41:43.627Z,2.84
2023-03-06T03:44:11.393Z,2.96
2023-03-06T03:46:39.509Z,2.91
2023-03-06T03:49:07.558Z,3.08
2023-03-06T03:51:36.750Z,3.04
2023-03-06T03:54:06.284Z,3.00
2023-03-06T03:56:46.278Z,2.97
2023-03-06T03:59:13.980Z,2.89
2023-03-06T04:01:41.678Z,2.83
2023-03-06T04:04:09.486Z,2.81
2023-03-06T04:06:39.031Z,2.79
2023-03-06T04:09:06.987Z,2.71
2023-03-06T04:11:34.664Z,2.71
2023-03-06T04:14:03.325Z,2.75
2023-03-06T04:16:31.153Z,2.82
2023-03-06T04:18:58.952Z,2.79
2023-03-06T04:21:26.673Z,2.82
2023-03-06T04:23:55.795Z,2.83
2023-03-06T04:26:23.465Z,2.77
2023-03-06T04:28:51.209Z,2.73
2023-03-06T04:31:19.000Z,2.75
2023-03-06T04:33:46.753Z,2.84
2023-03-06T04:36:25.374Z,2.84
2023-03-06T04:38:53.168Z,2.92
2023-03-06T04:41:22.431Z,2.85
2023-03-06T04:43:50.374Z,2.78
2023-03-06T04:46:18.544Z,2.83
2023-03-06T04:48:46.288Z,2.90
2023-03-06T04:51:14.624Z,2.83
2023-03-06T04:53:42.301Z,2.87
2023-03-06T04:56:10.025Z,2.92
2023-03-06T04:58:39.687Z,2.89
2023-03-06T05:01:07.658Z,2.79
2023-03-06T05:03:35.414Z,2.72
2023-03-06T05:06:03.196Z,2.75
2023-03-06T05:08:49.811Z,2.76
2023-03-06T05:11:17.741Z,2.69
2023-03-06T05:13:47.069Z,2.66
2023-03-06T05:16:14.788Z,2.72
2023-03-06T05:18:42.564Z,2.71
2023-03-06T05:21:10.482Z,2.72
2023-03-06T05:23:39.537Z,2.76
2023-03-06T05:26:09.597Z,2.79
2023-03-06T05:28:37.418Z,2.80
2023-03-06T05:31:07.266Z,2.83
2023-03-06T05:33:35.744Z,2.86
2023-03-06T05:36:03.640Z,2.93
2023-03-06T05:38:31.379Z,2.86
2023-03-06T05:40:59.304Z,2.84
2023-03-06T05:43:26.995Z,2.99
2023-03-06T05:46:01.976Z,3.01
2023-03-06T05:48:31.227Z,2.91
2023-03-06T05:50:59.338Z,2.91
2023-03-06T05:53:27.247Z,3.02
2023-03-06T05:55:58.746Z,2.99
2023-03-06T05:58:26.757Z,2.98
2023-03-06T06:00:54.483Z,2.89
2023-03-06T06:03:22.274Z,3.00
2023-03-06T06:05:51.565Z,2.99
2023-03-06T06:08:19.591Z,3.05
2023-03-06T06:10:47.267Z,2.96
2023-03-06T06:13:15.288Z,3.11
2023-03-06T06:15:42.969Z,2.99
2023-03-06T06:18:10.647Z,3.13
2023-03-06T06:20:38.631Z,3.11
2023-03-06T06:23:07.799Z,3.09
2023-03-06T06:25:35.478Z,3.03
2023-03-06T06:28:03.420Z,3.15
2023-03-06T06:30:31.545Z,3.22
2023-03-06T06:32:59.286Z,3.14
2023-03-06T06:35:27.627Z,3.17
2023-03-06T06:37:55.308Z,3.13
2023-03-06T06:40:24.465Z,3.12
2023-03-06T06:42:53.780Z,3.25
2023-03-06T06:45:21.477Z,3.19
2023-03-06T06:47:50.744Z,3.22
2023-03-06T06:50:18.719Z,3.19
2023-03-06T06:52:46.489Z,3.22
2023-03-06T06:55:15.224Z,3.24
2023-03-06T06:57:44.681Z,3.46
2023-03-06T07:00:14.864Z,3.40
2023-03-06T07:02:42.650Z,3.28
2023-03-06T07:05:11.213Z,3.35
2023-03-06T07:08:18.975Z,3.18
2023-03-06T07:10:46.949Z,3.30
2023-03-06T07:13:16.164Z,3.15
2023-03-06T07:15:43.948Z,3.20
2023-03-06T07:18:11.763Z,3.22
2023-03-06T07:20:39.478Z,2.92
2023-03-06T07:23:08.862Z,2.72
2023-03-06T07:25:36.576Z,2.82
2023-03-06T07:28:04.421Z,2.94
2023-03-06T07:30:33.634Z,2.83
2023-03-06T07:33:01.503Z,2.75
2023-03-06T07:35:29.891Z,2.85
2023-03-06T07:37:57.679Z,2.72
2023-03-06T07:40:25.626Z,2.69
2023-03-06T07:42:54.718Z,2.60
2023-03-06T07:45:23.029Z,2.46
2023-03-06T07:47:52.623Z,2.47
2023-03-06T07:50:20.786Z,2.39
2023-03-06T07:52:49.432Z,2.33
2023-03-06T07:55:17.138Z,2.55
2023-03-06T07:57:44.902Z,2.58
2023-03-06T08:00:14.937Z,2.52
2023-03-06T08:02:43.488Z,2.65
2023-03-06T08:05:15.674Z,2.69
2023-03-06T08:07:43.676Z,2.68
2023-03-06T08:10:14.454Z,2.78
2023-03-06T08:12:44.961Z,2.92
2023-03-06T08:15:13.840Z,2.81
2023-03-06T08:17:41.859Z,3.00
2023-03-06T08:20:11.433Z,2.96
2023-03-06T08:22:40.968Z,2.93
2023-03-06T08:25:09.341Z,2.95
2023-03-06T08:27:37.361Z,2.64
2023-03-06T08:30:05.560Z,2.64
2023-03-06T08:32:36.194Z,2.47
2023-03-06T08:35:04.469Z,2.61
2023-03-06T08:37:32.190Z,2.58
2023-03-06T08:40:02.679Z,2.72
2023-03-06T08:42:30.320Z,2.61
2023-03-06T08:44:58.073Z,2.72
2023-03-06T08:47:25.770Z,2.83
2023-03-06T08:49:53.555Z,2.93
2023-03-06T08:52:21.360Z,2.98
2023-03-06T08:54:49.050Z,3.03
2023-03-06T08:57:18.165Z,3.36
2023-03-06T08:59:45.881Z,3.22
2023-03-06T09:02:15.220Z,2.97
2023-03-06T09:04:43.023Z,3.13
2023-03-06T09:07:10.685Z,3.09
2023-03-06T09:09:38.448Z,3.01
2023-03-06T09:12:06.326Z,3.61
2023-03-06T09:14:35.425Z,3.99
2023-03-06T09:17:03.156Z,3.71
2023-03-06T09:19:30.994Z,3.81
2023-03-06T09:22:01.033Z,3.74
2023-03-06T09:24:29.130Z,3.89
2023-03-06T09:26:56.782Z,3.68
2023-03-06T09:29:24.548Z,4.13
2023-03-06T09:31:53.649Z,3.71
2023-03-06T09:34:21.623Z,4.12
2023-03-06T09:36:56.884Z,4.41
2023-03-06T09:39:37.435Z,4.08
2023-03-06T09:42:08.419Z,4.13
2023-03-06T09:44:38.118Z,3.88
2023-03-06T09:47:25.551Z,4.08
2023-03-06T09:50:24.624Z,4.57
2023-03-06T09:53:03.797Z,4.41
2023-03-06T09:55:32.856Z,4.83
2023-03-06T09:58:07.171Z,4.37
2023-03-06T10:00:37.454Z,4.54
2023-03-06T10:03:16.616Z,4.39
2023-03-06T10:05:46.196Z,4.54
2023-03-06T10:08:32.150Z,4.41
2023-03-06T10:14:40.085Z,4.61
2023-03-06T10:17:16.263Z,5.01
2023-03-06T10:19:47.600Z,4.80
2023-03-06T10:22:22.779Z,4.97
2023-03-06T10:24:55.023Z,5.00
2023-03-06T10:27:37.336Z,4.99
2023-03-06T10:30:19.672Z,5.00
2023-03-06T10:32:52.662Z,5.83
2023-03-06T10:35:23.868Z,5.47
2023-03-06T10:37:51.564Z,5.36
2023-03-06T10:40:22.646Z,5.35
2023-03-06T10:43:01.510Z,5.45
2023-03-06T10:45:49.512Z,6.27
2023-03-06T10:48:21.092Z,6.44
2023-03-06T10:50:50.374Z,6.30
2023-03-06T10:53:23.146Z,6.21
2023-03-06T10:55:57.029Z,5.57
2023-03-06T10:58:27.347Z,5.77
2023-03-06T11:01:04.072Z,5.99
2023-03-06T11:03:32.033Z,6.00
2023-03-06T11:06:06.246Z,6.27
2023-03-06T11:08:35.382Z,6.12
2023-03-06T11:11:05.510Z,6.21
2023-03-06T11:13:34.862Z,6.49
2023-03-06T11:16:08.026Z,6.55
2023-03-06T11:18:38.253Z,6.53
2023-03-06T11:21:25.676Z,7.33
2023-03-06T11:23:53.422Z,6.76
2023-03-06T11:26:27.943Z,6.63
2023-03-06T11:29:04.406Z,6.68
2023-03-06T11:31:34.069Z,6.73
2023-03-06T11:34:06.414Z,6.40
2023-03-06T11:36:38.909Z,5.97
2023-03-06T11:39:20.804Z,6.18
2023-03-06T11:41:53.805Z,6.53
2023-03-06T11:44:25.235Z,6.48
2023-03-06T11:46:56.416Z,6.45
2023-03-06T11:49:25.783Z,6.96
2023-03-06T11:51:57.112Z,6.60
2023-03-06T11:54:25.110Z,6.99
2023-03-06T11:57:12.738Z,6.99
2023-03-06T12:00:06.081Z,6.91
2023-03-06T12:05:37.032Z,6.97
2023-03-06T12:08:17.483Z,6.79
2023-03-06T12:10:52.314Z,6.85
2023-03-06T12:13:41.061Z,6.97
2023-03-06T12:16:30.091Z,6.63
2023-03-06T12:19:06.021Z,6.26
2023-03-06T12:21:41.042Z,6.55
2023-03-06T12:24:17.952Z,6.11
2023-03-06T12:26:56.314Z,6.03
2023-03-06T12:29:34.559Z,5.77
2023-03-06T12:32:14.252Z,6.02
2023-03-06T12:34:52.933Z,6.09
2023-03-06T12:37:24.058Z,6.23
2023-03-06T12:40:07.175Z,6.11
2023-03-06T12:42:47.084Z,6.51
2023-03-06T12:45:25.209Z,6.58
2023-03-06T12:47:56.532Z,6.56
2023-03-06T12:50:26.524Z,6.75
2023-03-06T12:52:54.848Z,6.76
2023-03-06T12:55:25.958Z,6.97
2023-03-06T12:57:53.991Z,7.05
2023-03-06T13:01:04.236Z,6.72
2023-03-06T13:03:39.410Z,6.76
2023-03-06T13:06:15.138Z,6.98
2023-03-06T13:08:58.281Z,6.57
2023-03-06T13:11:49.134Z,6.89
2023-03-06T13:14:25.626Z,7.64
2023-03-06T13:17:27.114Z,7.87
2023-03-06T13:20:21.206Z,8.03
2023-03-06T13:22:49.293Z,7.98
2023-03-06T13:25:43.854Z,7.80
2023-03-06T13:28:24.035Z,7.80
2023-03-06T13:30:53.274Z,7.87
2023-03-06T13:33:52.903Z,7.89
2023-03-06T13:36:23.939Z,7.19
2023-03-06T13:38:57.571Z,7.18
2023-03-06T13:41:44.327Z,7.04
2023-03-06T13:44:43.567Z,6.96
2023-03-06T13:47:41.854Z,7.32
2023-03-06T13:50:30.296Z,6.75
2023-03-06T13:53:07.919Z,6.86
2023-03-06T13:55:39.589Z,7.02
2023-03-06T13:58:26.784Z,6.71
2023-03-06T14:01:05.668Z,7.20
2023-03-06T14:03:58.333Z,6.95
2023-03-06T14:06:50.901Z,6.90
2023-03-06T14:09:25.717Z,7.20
2023-03-06T14:11:56.142Z,7.44
2023-03-06T14:14:34.134Z,7.66
2023-03-06T14:17:05.249Z,7.91
2023-03-06T14:19:39.369Z,7.59
2023-03-06T14:22:08.759Z,7.93
2023-03-06T14:24:39.100Z,8.15
2023-03-06T14:27:07.180Z,8.50
2023-03-06T14:29:34.944Z,9.48
2023-03-06T14:32:06.060Z,10.46
2023-03-06T14:34:40.134Z,10.30
2023-03-06T14:40:46.662Z,8.76
2023-03-06T14:43:20.850Z,7.75
2023-03-06T14:45:55.858Z,8.62
2023-03-06T14:48:26.457Z,8.57
2023-03-06T14:50:55.782Z,9.71
2023-03-06T14:53:26.445Z,9.92
2023-03-06T14:55:57.897Z,8.52
2023-03-06T14:58:32.500Z,8.41
2023-03-06T15:01:03.706Z,7.64
2023-03-06T15:03:40.742Z,7.69
2023-03-06T15:06:10.177Z,7.47
2023-03-06T15:08:39.359Z,7.17
2023-03-06T15:11:09.142Z,7.49
2023-03-06T15:13:37.177Z,7.17
2023-03-06T15:16:06.223Z,6.84
2023-03-06T15:18:39.021Z,6.95
2023-03-06T15:21:12.057Z,6.80
2023-03-06T15:23:41.096Z,7.02
2023-03-06T15:26:29.165Z,7.37
2023-03-06T15:29:07.050Z,7.58
2023-03-06T15:31:37.315Z,8.03
2023-03-06T15:34:25.079Z,7.94
2023-03-06T15:36:55.384Z,8.02
2023-03-06T15:39:32.407Z,7.82
2023-03-06T15:42:00.387Z,7.74
2023-03-06T15:44:28.530Z,7.83
2023-03-06T15:47:07.716Z,7.98
2023-03-06T15:49:37.904Z,7.59
2023-03-06T15:52:05.780Z,8.32
2023-03-06T15:54:33.451Z,8.82
2023-03-06T15:57:22.342Z,8.46
2023-03-06T15:59:50.395Z,8.12
2023-03-06T16:02:19.572Z,8.06
2023-03-06T16:04:49.198Z,7.95
2023-03-06T16:07:17.319Z,7.56
2023-03-06T16:09:45.270Z,7.39
2023-03-06T16:12:17.337Z,7.31
2023-03-06T16:14:45.203Z,7.55
2023-03-06T16:17:13.722Z,7.24
2023-03-06T16:19:41.773Z,7.37
2023-03-06T16:22:11.054Z,7.15
2023-03-06T16:24:38.985Z,7.17
2023-03-06T16:27:07.329Z,6.90
2023-03-06T16:29:35.164Z,7.00
2023-03-06T16:32:03.114Z,6.56
2023-03-06T16:34:30.795Z,6.60
2023-03-06T16:36:58.702Z,6.52
2023-03-06T16:39:27.835Z,6.60
2023-03-06T16:41:56.710Z,6.50
2023-03-06T16:44:24.640Z,6.50
2023-03-06T16:46:52.315Z,6.42
2023-03-06T16:49:21.616Z,6.24
2023-03-06T16:51:49.622Z,6.24
2023-03-06T16:54:17.317Z,6.11
2023-03-06T16:56:46.826Z,6.01
2023-03-06T16:59:14.493Z,5.88
2023-03-06T17:01:44.029Z,5.85
2023-03-06T17:04:11.902Z,5.76
2023-03-06T17:06:39.864Z,5.69
2023-03-06T17:09:07.675Z,5.58
2023-03-06T17:11:36.647Z,5.51
2023-03-06T17:14:06.137Z,5.52
2023-03-06T17:16:33.864Z,5.38
2023-03-06T17:19:02.422Z,5.37
2023-03-06T17:21:30.477Z,5.50
2023-03-06T17:23:58.503Z,5.35
2023-03-06T17:26:26.377Z,5.39
2023-03-06T17:28:54.341Z,5.36
2023-03-06T17:31:25.395Z,5.39
2023-03-06T17:33:54.582Z,5.33
2023-03-06T17:36:22.219Z,5.35
2023-03-06T17:38:49.995Z,5.39
2023-03-06T17:41:17.668Z,5.36
2023-03-06T17:43:45.293Z,5.47
2023-03-06T17:46:14.180Z,5.49
2023-03-06T17:48:43.236Z,5.47
2023-03-06T17:51:10.900Z,5.52
2023-03-06T17:53:38.736Z,5.54
2023-03-06T17:56:07.513Z,5.49
2023-03-06T17:58:35.810Z,5.40
2023-03-06T18:01:11.679Z,5.27
2023-03-06T18:03:39.669Z,5.04
2023-03-06T18:06:11.003Z,4.96
2023-03-06T18:08:38.798Z,4.82
2023-03-06T18:11:07.852Z,4.71
2023-03-06T18:13:37.533Z,4.61
2023-03-06T18:16:06.177Z,4.50
2023-03-06T18:18:34.144Z,4.58
2023-03-06T18:21:04.631Z,4.44
2023-03-06T18:23:33.698Z,4.39
2023-03-06T18:26:10.364Z,4.50
2023-03-06T18:28:39.894Z,4.48
2023-03-06T18:31:15.451Z,4.41
2023-03-06T18:33:43.302Z,4.44
2023-03-06T18:36:11.348Z,4.46
2023-03-06T18:38:42.937Z,4.47
2023-03-06T18:41:11.162Z,4.48
2023-03-06T18:43:38.931Z,4.48
2023-03-06T18:46:07.215Z,4.52
2023-03-06T18:48:34.875Z,4.48
2023-03-06T18:51:05.152Z,4.47
2023-03-06T18:53:32.835Z,4.42
2023-03-06T18:56:02.450Z,4.37
2023-03-06T18:58:30.374Z,4.42
2023-03-06T19:00:59.656Z,4.43
2023-03-06T19:03:27.440Z,4.40
2023-03-06T19:05:55.548Z,4.43
2023-03-06T19:08:23.397Z,4.39
2023-03-06T19:10:51.786Z,4.47
2023-03-06T19:13:20.959Z,4.48
2023-03-06T19:15:49.971Z,4.33
2023-03-06T19:18:19.092Z,4.47
2023-03-06T19:20:46.950Z,4.40
2023-03-06T19:23:14.716Z,4.47
2023-03-06T19:25:42.981Z,4.44
2023-03-06T19:28:10.896Z,4.45
2023-03-06T19:30:43.434Z,4.47
2023-03-06T19:33:11.113Z,4.46
2023-03-06T19:35:38.983Z,4.36
2023-03-06T19:38:06.682Z,4.43
2023-03-06T19:40:35.296Z,4.38
2023-03-06T19:43:03.163Z,4.37
2023-03-06T19:45:31.366Z,4.38
2023-03-06T19:48:01.055Z,4.37
2023-03-06T19:50:29.751Z,4.40
2023-03-06T19:52:57.659Z,4.32
2023-03-06T19:55:26.412Z,4.33
2023-03-06T19:57:54.507Z,4.29
2023-03-06T20:00:22.717Z,4.27
2023-03-06T20:02:50.627Z,4.18
2023-03-06T20:05:20.111Z,4.26
2023-03-06T20:07:48.166Z,4.20
2023-03-06T20:10:16.055Z,4.11
2023-03-06T20:12:43.720Z,4.18
2023-03-06T20:15:12.211Z,4.15
2023-03-06T20:17:41.189Z,4.11
2023-03-06T20:20:10.813Z,4.17
2023-03-06T20:22:40.030Z,4.19
2023-03-06T20:25:08.282Z,4.09
2023-03-06T20:27:35.909Z,4.17
2023-03-06T20:30:04.366Z,4.23
2023-03-06T20:32:33.434Z,4.16
2023-03-06T20:35:01.189Z,4.24
2023-03-06T20:37:28.879Z,4.18
2023-03-06T20:39:58.044Z,4.24
2023-03-06T20:42:25.826Z,4.24
2023-03-06T20:44:53.479Z,4.19
2023-03-06T20:47:21.131Z,4.27
2023-03-06T20:49:48.757Z,4.22
2023-03-06T20:52:17.495Z,4.22
2023-03-06T20:54:45.794Z,4.37
2023-03-06T20:57:14.985Z,4.35
2023-03-06T20:59:42.888Z,4.36
2023-03-06T21:02:11.154Z,4.45
2023-03-06T21:04:41.105Z,4.39
2023-03-06T21:07:08.852Z,4.45
2023-03-06T21:09:37.877Z,4.41
2023-03-06T21:12:06.165Z,4.42
2023-03-06T21:14:35.256Z,4.58
2023-03-06T21:17:02.883Z,4.52
2023-03-06T21:19:30.654Z,4.49
2023-03-06T21:21:58.364Z,4.43
2023-03-06T21:24:26.048Z,4.53
2023-03-06T21:26:53.676Z,4.44
2023-03-06T21:29:21.365Z,4.35
2023-03-06T21:31:50.443Z,4.45
2023-03-06T21:34:18.104Z,4.44
2023-03-06T21:36:45.783Z,4.44
2023-03-06T21:39:13.971Z,4.43
2023-03-06T21:41:42.087Z,4.46
2023-03-06T21:44:09.768Z,4.40
2023-03-06T21:46:37.465Z,4.51
2023-03-06T21:49:06.761Z,4.44
2023-03-06T21:51:34.870Z,4.37
2023-03-06T21:54:03.860Z,4.41
2023-03-06T21:56:33.434Z,4.30
2023-03-06T21:59:01.356Z,4.32
2023-03-06T22:01:29.817Z,4.33
2023-03-06T22:03:58.893Z,4.28
2023-03-06T22:06:29.714Z,4.30
2023-03-06T22:08:58.518Z,4.12
2023-03-06T22:11:27.523Z,4.20
2023-03-06T22:13:55.181Z,4.07
2023-03-06T22:16:23.021Z,4.13
2023-03-06T22:18:52.430Z,4.08
2023-03-06T22:21:22.527Z,4.12
2023-03-06T22:23:52.536Z,4.03
2023-03-06T22:26:20.554Z,4.06
2023-03-06T22:28:48.239Z,4.05
2023-03-06T22:31:17.765Z,3.91
2023-03-06T22:33:45.563Z,3.93
2023-03-06T22:36:15.107Z,3.84
2023-03-06T22:38:44.353Z,3.79
2023-03-06T22:41:15.103Z,3.86
2023-03-06T22:43:43.556Z,3.77
2023-03-06T22:46:13.521Z,3.77
2023-03-06T22:48:41.548Z,3.74
2023-03-06T22:51:10.484Z,3.83
2023-03-06T22:53:38.885Z,3.82
2023-03-06T22:56:08.876Z,3.87
2023-03-06T22:58:38.380Z,3.88
2023-03-06T23:01:08.256Z,3.68
2023-03-06T23:03:37.197Z,3.81
2023-03-06T23:06:08.146Z,3.75
2023-03-06T23:08:35.953Z,3.82
2023-03-06T23:11:03.652Z,3.78
2023-03-06T23:13:31.417Z,3.77
2023-03-06T23:16:03.082Z,3.75
2023-03-06T23:18:30.897Z,3.69
2023-03-06T23:20:58.900Z,3.55
2023-03-06T23:23:27.008Z,3.67
2023-03-06T23:25:59.644Z,3.63
2023-03-06T23:28:27.580Z,3.49
2023-03-06T23:30:55.684Z,3.71
2023-03-06T23:33:24.977Z,3.53
2023-03-06T23:35:52.733Z,3.52
2023-03-06T23:38:20.460Z,3.59
2023-03-06T23:40:48.053Z,3.60
2023-03-06T23:43:15.693Z,3.57
2023-03-06T23:45:53.212Z,3.66
2023-03-06T23:48:21.026Z,3.66
2023-03-06T23:50:50.136Z,3.71
2023-03-06T23:53:18.335Z,3.72
2023-03-06T23:55:47.713Z,3.71
2023-03-06T23:58:16.784Z,3.69
